Time;durP1;ratioP1;P1;durP2;ratioP2;P2;SDS_P1;SDS_P2;PMS_P1;PMS_P2;Temp;Humidity;BMP_temperature;BMP_pressure;BME280_temperature;BME280_humidity;BME280_pressure;Samples;Min_cycle;Max_cycle;Signal;HPM_P1;HPM_P2
2021/06/22 00:01:47;;;;;;;2.47;2.27;;;;;;;15.17;79.63;100543.13;5122828;28;20211;-78
2021/06/22 00:04:14;;;;;;;4.67;2.53;;;;;;;15.13;79.41;100544.38;5118151;28;20264;-77
2021/06/22 00:06:40;;;;;;;5.03;2.17;;;;;;;15.12;79.19;100541.81;5126521;28;20209;-77
2021/06/22 00:09:08;;;;;;;4.10;2.23;;;;;;;15.09;79.65;100542.06;5126528;28;20674;-78
2021/06/22 00:11:35;;;;;;;2.90;2.07;;;;;;;15.04;79.40;100547.84;5116602;28;20298;-77
2021/06/22 00:14:01;;;;;;;4.93;2.03;;;;;;;15.01;79.12;100549.91;5123321;28;20204;-78
2021/06/22 00:16:29;;;;;;;2.00;1.90;;;;;;;14.98;78.86;100553.69;5117424;28;20665;-79
2021/06/22 00:18:55;;;;;;;2.47;2.23;;;;;;;14.96;79.21;100557.47;5117084;28;20319;-79
2021/06/22 00:21:22;;;;;;;2.30;2.10;;;;;;;14.97;79.28;100553.81;5120910;28;20211;-80
2021/06/22 00:23:48;;;;;;;3.37;2.30;;;;;;;14.94;79.07;100549.56;5128922;28;20199;-78
2021/06/22 00:26:16;;;;;;;6.57;2.40;;;;;;;14.93;79.34;100546.03;5120573;28;20229;-79
2021/06/22 00:28:43;;;;;;;4.03;2.63;;;;;;;14.92;79.07;100540.78;5124641;28;20211;-78
2021/06/22 00:31:09;;;;;;;3.37;2.27;;;;;;;14.90;78.98;100551.63;5120966;28;20291;-78
2021/06/22 00:33:36;;;;;;;4.93;2.90;;;;;;;14.84;79.13;100537.91;5129105;28;20295;-79
2021/06/22 00:36:03;;;;;;;5.83;2.40;;;;;;;14.79;79.38;100540.97;5119512;28;20184;-80
2021/06/22 00:38:29;;;;;;;5.70;3.67;;;;;;;14.77;79.77;100537.56;5129294;28;20214;-79
2021/06/22 00:40:56;;;;;;;3.37;2.17;;;;;;;14.74;79.57;100526.22;5124001;28;20267;-78
2021/06/22 00:43:24;;;;;;;5.97;2.60;;;;;;;14.70;79.54;100525.63;5120116;28;20208;-78
2021/06/22 00:45:51;;;;;;;4.50;2.73;;;;;;;14.68;80.18;100522.25;5116497;28;20315;-79
2021/06/22 00:48:17;;;;;;;5.13;3.50;;;;;;;14.68;79.82;100532.97;5117024;28;20291;-77
2021/06/22 00:50:44;;;;;;;4.37;2.90;;;;;;;14.66;80.23;100531.38;5119324;28;20578;-78
2021/06/22 00:53:11;;;;;;;4.33;3.10;;;;;;;14.62;80.29;100536.13;5128488;28;20204;-78
2021/06/22 00:55:37;;;;;;;4.60;3.23;;;;;;;14.58;79.99;100538.22;5120497;28;20206;-77
2021/06/22 00:58:06;;;;;;;4.43;3.40;;;;;;;14.57;80.74;100536.50;5129152;28;20274;-78
2021/06/22 01:00:35;;;;;;;4.43;3.13;;;;;;;14.58;80.80;100537.34;5119847;28;20648;-79
2021/06/22 01:03:02;;;;;;;4.07;2.97;;;;;;;14.53;80.76;100540.41;5121742;28;20200;-79
2021/06/22 01:05:29;;;;;;;5.57;3.20;;;;;;;14.51;80.93;100544.22;5120410;28;20287;-79
2021/06/22 01:07:58;;;;;;;5.37;3.37;;;;;;;14.47;80.65;100557.00;5121173;28;20226;-78
2021/06/22 01:10:25;;;;;;;5.07;3.97;;;;;;;14.44;80.98;100559.06;5118555;28;20230;-78
2021/06/22 01:12:53;;;;;;;5.73;3.70;;;;;;;14.41;80.81;100554.81;5124867;28;20196;-77
2021/06/22 01:15:23;;;;;;;6.27;4.33;;;;;;;14.39;81.01;100548.69;5125733;28;20199;-80
2021/06/22 01:17:54;;;;;;;8.43;4.63;;;;;;;14.37;81.34;100556.00;5126311;28;20199;-80
2021/06/22 01:20:22;;;;;;;9.57;5.53;;;;;;;14.34;81.34;100572.31;5124561;28;20310;-79
2021/06/22 01:22:51;;;;;;;6.67;4.73;;;;;;;14.31;81.21;100577.94;5120262;28;20549;-80
2021/06/22 01:25:18;;;;;;;7.07;4.77;;;;;;;14.30;81.57;100570.03;5108701;28;20224;-79
2021/06/22 01:27:44;;;;;;;7.60;4.47;;;;;;;14.28;81.74;100564.78;5119278;28;20206;-80
2021/06/22 01:30:12;;;;;;;5.93;3.87;;;;;;;14.25;81.81;100568.56;5102864;28;20225;-80
2021/06/22 01:32:38;;;;;;;9.60;4.70;;;;;;;14.23;82.06;100569.66;5106421;28;20270;-80
2021/06/22 01:35:06;;;;;;;6.13;4.07;;;;;;;14.21;82.11;100579.63;5109889;28;20198;-79
2021/06/22 01:37:32;;;;;;;7.27;4.20;;;;;;;14.16;81.63;100579.13;5114497;28;20204;-78
2021/06/22 01:40:04;;;;;;;6.83;4.10;;;;;;;14.12;81.66;100591.09;5113918;28;20219;-79
2021/06/22 01:42:31;;;;;;;7.53;4.10;;;;;;;14.10;82.12;100596.56;5117676;28;20187;-78
2021/06/22 01:44:58;;;;;;;5.83;4.07;;;;;;;14.07;82.02;100590.59;5117784;28;20238;-79
2021/06/22 01:47:25;;;;;;;6.57;4.27;;;;;;;14.04;81.96;100585.47;5117673;28;20561;-78
2021/06/22 01:49:58;;;;;;;10.17;4.80;;;;;;;14.00;81.85;100576.81;5117164;28;20310;-80
2021/06/22 01:52:25;;;;;;;6.47;5.00;;;;;;;14.00;82.22;100584.00;5114062;28;20192;-79
2021/06/22 01:54:54;;;;;;;6.87;5.20;;;;;;;13.99;81.80;100593.00;5107786;28;20675;-78
2021/06/22 01:57:22;;;;;;;9.63;5.10;;;;;;;13.98;82.42;100584.13;5117684;28;20557;-78
2021/06/22 01:59:48;;;;;;;8.13;5.20;;;;;;;13.97;82.08;100585.13;5117643;28;20230;-78
2021/06/22 02:02:43;;;;;;;7.80;5.40;;;;;;;13.96;82.19;100587.91;5117676;28;20554;-79
2021/06/22 02:05:10;;;;;;;7.37;4.67;;;;;;;13.95;82.05;100586.22;5117025;28;20709;-79
2021/06/22 02:07:37;;;;;;;8.23;5.27;;;;;;;13.94;81.77;100596.06;5099763;28;20290;-77
2021/06/22 02:10:05;;;;;;;6.50;5.10;;;;;;;13.96;81.87;100603.97;5097494;28;20230;-78
2021/06/22 02:12:33;;;;;;;8.90;5.50;;;;;;;13.98;81.92;100618.06;5096812;28;20200;-76
2021/06/22 02:14:59;;;;;;;9.40;5.30;;;;;;;13.99;81.87;100630.50;5096832;28;20208;-77
2021/06/22 02:17:26;;;;;;;7.80;5.23;;;;;;;14.00;82.01;100638.41;5096485;28;20519;-76
2021/06/22 02:19:52;;;;;;;9.53;5.23;;;;;;;14.01;82.30;100628.56;5097039;28;20227;-80
2021/06/22 02:22:19;;;;;;;7.83;5.10;;;;;;;14.01;82.08;100629.41;5097030;28;20211;-81
2021/06/22 02:24:45;;;;;;;7.27;5.27;;;;;;;14.00;81.57;100630.38;5096311;28;20204;-81
2021/06/22 02:27:22;;;;;;;11.17;5.43;;;;;;;14.00;81.37;100632.19;5096359;28;20224;-78
2021/06/22 02:29:50;;;;;;;8.20;5.50;;;;;;;14.01;81.48;100620.50;5095983;28;20701;-80
2021/06/22 02:32:16;;;;;;;8.03;5.63;;;;;;;14.01;81.47;100629.41;5096506;28;20204;-80
2021/06/22 02:34:44;;;;;;;8.87;5.47;;;;;;;14.01;81.47;100631.22;5096880;28;20664;-79
2021/06/22 02:37:10;;;;;;;9.80;6.10;;;;;;;14.03;81.61;100640.00;5097158;28;20204;-80
2021/06/22 02:39:37;;;;;;;9.97;6.10;;;;;;;14.04;81.34;100644.38;5096730;28;20228;-80
2021/06/22 02:42:04;;;;;;;9.73;5.87;;;;;;;14.05;81.13;100630.03;5096618;28;20214;-78
2021/06/22 02:44:31;;;;;;;8.13;5.50;;;;;;;14.05;81.24;100627.34;5096816;28;20204;-80
2021/06/22 02:46:59;;;;;;;7.83;5.30;;;;;;;14.05;81.02;100616.63;5096985;28;20698;-78
2021/06/22 02:49:25;;;;;;;10.60;5.53;;;;;;;14.02;81.10;100614.19;5096966;28;20224;-78
2021/06/22 02:51:52;;;;;;;8.17;5.50;;;;;;;13.99;80.78;100598.34;5113316;28;20199;-78
2021/06/22 02:54:19;;;;;;;6.43;4.73;;;;;;;13.97;80.94;100598.50;5116607;28;20231;-78
2021/06/22 02:56:45;;;;;;;9.40;4.47;;;;;;;13.97;80.83;100611.91;5117402;28;20286;-80
2021/06/22 02:59:12;;;;;;;9.20;5.20;;;;;;;13.96;80.90;100615.53;5116624;28;20692;-79
2021/06/22 03:01:38;;;;;;;8.67;4.93;;;;;;;13.93;80.66;100629.16;5116007;28;20203;-77
2021/06/22 03:04:06;;;;;;;11.57;5.77;;;;;;;13.90;80.15;100630.25;5114507;28;20550;-78
2021/06/22 03:06:33;;;;;;;8.60;4.80;;;;;;;13.89;80.64;100641.94;5096714;28;20223;-80
2021/06/22 03:08:59;;;;;;;10.87;5.00;;;;;;;13.90;80.80;100649.00;5096987;28;20311;-80
2021/06/22 03:11:26;;;;;;;9.20;4.60;;;;;;;13.93;80.67;100647.91;5096388;28;20208;-80
2021/06/22 03:13:53;;;;;;;11.40;5.30;;;;;;;13.95;80.04;100634.41;5096359;28;20576;-81
2021/06/22 03:16:19;;;;;;;8.80;4.50;;;;;;;13.96;80.29;100645.00;5096683;28;20200;-81
2021/06/22 03:18:46;;;;;;;10.20;5.20;;;;;;;13.98;80.24;100642.16;5096165;28;20204;-80
2021/06/22 03:21:14;;;;;;;8.10;5.13;;;;;;;14.01;80.65;100647.28;5096310;28;20212;-79
2021/06/22 03:23:40;;;;;;;6.07;5.23;;;;;;;14.04;80.48;100647.91;5096340;28;20679;-79
2021/06/22 03:26:07;;;;;;;10.10;5.60;;;;;;;14.08;80.55;100651.22;5096318;28;20259;-81
2021/06/22 03:28:33;;;;;;;9.57;5.33;;;;;;;14.11;79.98;100646.47;5096239;28;20688;-77
2021/06/22 03:31:00;;;;;;;8.90;5.13;;;;;;;14.13;80.10;100649.88;5096450;28;20199;-81
2021/06/22 03:33:27;;;;;;;9.03;5.07;;;;;;;14.14;79.79;100656.09;5096643;28;20290;-78
2021/06/22 03:35:53;;;;;;;10.97;5.20;;;;;;;14.17;80.38;100655.84;5095787;28;20265;-78
2021/06/22 03:38:21;;;;;;;9.70;5.43;;;;;;;14.17;79.76;100656.69;5095841;28;20204;-80
2021/06/22 03:40:48;;;;;;;12.43;5.43;;;;;;;14.17;79.43;100662.03;5106908;28;20223;-80
2021/06/22 03:43:14;;;;;;;14.27;5.70;;;;;;;14.16;79.78;100662.16;5115366;28;20206;-80
2021/06/22 03:45:41;;;;;;;10.13;5.30;;;;;;;14.16;79.58;100665.69;5116844;28;20599;-80
2021/06/22 03:48:08;;;;;;;7.90;5.10;;;;;;;14.16;79.61;100678.22;5115259;28;20203;-80
2021/06/22 03:50:35;;;;;;;8.93;4.90;;;;;;;14.18;79.76;100681.66;5115528;28;20220;-79
2021/06/22 03:53:02;;;;;;;11.70;5.47;;;;;;;14.18;79.40;100674.47;5116215;28;20211;-79
2021/06/22 03:55:30;;;;;;;17.83;6.57;;;;;;;14.18;79.27;100676.28;5116591;28;20210;-79
2021/06/22 03:57:58;;;;;;;9.73;5.43;;;;;;;14.19;79.28;100684.22;5116377;28;20599;-79
2021/06/22 04:00:25;;;;;;;7.93;5.30;;;;;;;14.23;79.68;100692.88;5115818;28;20228;-80
2021/06/22 04:02:52;;;;;;;10.53;5.63;;;;;;;14.24;79.38;100697.25;5116024;28;20222;-80
2021/06/22 04:05:19;;;;;;;12.00;5.30;;;;;;;14.25;79.67;100701.63;5115694;28;20208;-79
2021/06/22 04:07:45;;;;;;;10.13;5.20;;;;;;;14.26;79.33;100692.63;5115547;28;20219;-78
2021/06/22 04:10:13;;;;;;;12.43;5.67;;;;;;;14.27;78.93;100680.94;5115198;28;20227;-80
2021/06/22 04:12:41;;;;;;;9.50;5.67;;;;;;;14.29;78.91;100680.84;5114945;28;20214;-78
2021/06/22 04:15:09;;;;;;;16.00;5.77;;;;;;;14.29;78.88;100681.69;5115533;28;20214;-79
2021/06/22 04:17:35;;;;;;;15.37;5.90;;;;;;;14.31;78.95;100678.88;5115597;28;20200;-81
2021/06/22 04:20:02;;;;;;;10.57;5.50;;;;;;;14.33;78.87;100679.63;5115529;28;20231;-79
2021/06/22 04:22:29;;;;;;;11.50;5.97;;;;;;;14.37;78.93;100689.09;5107043;28;20211;-78
2021/06/22 04:24:55;;;;;;;13.73;5.87;;;;;;;14.39;79.28;100692.53;5102593;28;20218;-81
2021/06/22 04:27:22;;;;;;;9.60;5.30;;;;;;;14.38;79.36;100691.66;5115511;28;20231;-79
2021/06/22 04:29:50;;;;;;;9.13;5.57;;;;;;;14.39;79.15;100687.16;5115177;28;20705;-78
2021/06/22 04:32:17;;;;;;;10.53;5.70;;;;;;;14.38;78.62;100696.16;5115662;28;20214;-81
2021/06/22 04:34:43;;;;;;;11.17;5.77;;;;;;;14.38;78.97;100706.88;5104072;28;20197;-78
2021/06/22 04:37:10;;;;;;;9.30;5.27;;;;;;;14.37;78.81;100719.44;5105093;28;20202;-79
2021/06/22 04:39:36;;;;;;;11.27;5.63;;;;;;;14.36;78.83;100725.75;5114672;28;20582;-78
2021/06/22 04:42:03;;;;;;;11.20;5.70;;;;;;;14.36;78.66;100720.41;5114590;28;20217;-80
2021/06/22 04:44:30;;;;;;;11.67;5.73;;;;;;;14.38;78.16;100714.94;5114803;28;20285;-78
2021/06/22 04:46:58;;;;;;;10.60;5.57;;;;;;;14.40;78.75;100708.50;5116250;28;20224;-79
2021/06/22 04:49:24;;;;;;;13.00;5.67;;;;;;;14.41;78.65;100698.66;5118699;28;20228;-80
2021/06/22 04:51:51;;;;;;;11.33;5.30;;;;;;;14.43;78.66;100702.06;5118932;28;20206;-81
2021/06/22 04:54:18;;;;;;;12.00;5.40;;;;;;;14.46;78.83;100705.38;5118657;28;20270;-80
2021/06/22 04:56:46;;;;;;;11.97;4.90;;;;;;;14.48;79.03;100706.09;5118294;28;20214;-80
2021/06/22 04:59:12;;;;;;;10.93;4.97;;;;;;;14.50;79.15;100700.63;5118166;28;20231;-77
2021/06/22 05:01:39;;;;;;;8.07;4.80;;;;;;;14.50;78.91;100706.84;5118990;28;20669;-79
2021/06/22 05:04:08;;;;;;;8.97;4.87;;;;;;;14.52;79.20;100707.53;5098127;28;20269;-79
2021/06/22 05:06:34;;;;;;;10.03;4.70;;;;;;;14.55;79.27;100709.97;5098028;28;20704;-78
2021/06/22 05:09:01;;;;;;;9.37;4.63;;;;;;;14.55;78.94;100712.66;5097528;28;20224;-80
2021/06/22 05:11:27;;;;;;;9.07;4.70;;;;;;;14.55;78.64;100718.03;5097638;28;20211;-78
2021/06/22 05:13:54;;;;;;;8.83;3.93;;;;;;;14.57;79.16;100712.53;5097913;28;20696;-79
2021/06/22 05:16:20;;;;;;;9.90;4.63;;;;;;;14.59;78.76;100713.28;5097866;28;20215;-80
2021/06/22 05:18:47;;;;;;;8.13;4.70;;;;;;;14.61;78.93;100723.88;5106591;28;20204;-78
2021/06/22 05:21:16;;;;;;;10.17;4.83;;;;;;;14.62;78.93;100721.09;5098098;28;20210;-77
2021/06/22 05:23:43;;;;;;;10.80;4.87;;;;;;;14.62;78.57;100721.09;5097972;28;20204;-77
2021/06/22 05:26:09;;;;;;;9.70;4.27;;;;;;;14.62;78.36;100721.09;5102999;28;20226;-79
2021/06/22 05:28:36;;;;;;;10.73;4.93;;;;;;;14.64;78.71;100729.84;5118089;28;20213;-78
2021/06/22 05:31:02;;;;;;;11.73;4.73;;;;;;;14.68;78.43;100730.47;5116667;28;20199;-80
2021/06/22 05:33:29;;;;;;;17.17;5.70;;;;;;;14.71;78.61;100728.38;5116581;28;20519;-77
2021/06/22 05:35:55;;;;;;;10.13;5.07;;;;;;;14.76;78.50;100736.06;5118490;28;20203;-80
2021/06/22 05:38:23;;;;;;;9.13;4.50;;;;;;;14.78;78.52;100729.63;5110964;28;20196;-79
2021/06/22 05:40:50;;;;;;;9.27;4.60;;;;;;;14.79;78.70;100728.63;5100442;28;20219;-79
2021/06/22 05:43:16;;;;;;;6.80;4.93;;;;;;;14.81;78.43;100726.69;5116357;28;20205;-79
2021/06/22 05:45:43;;;;;;;9.03;4.70;;;;;;;14.82;78.38;100714.13;5097212;28;20208;-78
2021/06/22 05:48:09;;;;;;;7.97;4.83;;;;;;;14.84;77.86;100702.31;5111014;28;20231;-79
2021/06/22 05:50:36;;;;;;;10.43;4.83;;;;;;;14.80;77.84;100705.38;5118615;28;20219;-78
2021/06/22 05:53:03;;;;;;;8.33;4.77;;;;;;;14.79;77.23;100698.28;5117844;28;20553;-79
2021/06/22 05:55:31;;;;;;;10.70;4.50;;;;;;;14.77;77.37;100713.66;5117267;28;20625;-78
2021/06/22 05:57:59;;;;;;;8.83;4.70;;;;;;;14.78;77.05;100710.00;5095747;28;20208;-80
2021/06/22 06:00:27;;;;;;;12.23;4.63;;;;;;;14.82;77.04;100723.03;5096448;28;20220;-78
2021/06/22 06:02:53;;;;;;;7.80;4.60;;;;;;;14.87;76.68;100736.06;5095948;28;20206;-79
2021/06/22 06:05:22;;;;;;;9.70;4.40;;;;;;;14.90;76.73;100746.53;5096361;28;20200;-78
2021/06/22 06:07:49;;;;;;;9.70;4.93;;;;;;;14.94;76.45;100742.66;5096862;28;20239;-78
2021/06/22 06:10:16;;;;;;;7.87;4.87;;;;;;;14.94;76.02;100746.19;5096826;28;20724;-77
2021/06/22 06:12:44;;;;;;;10.43;4.60;;;;;;;14.97;75.73;100755.81;5096952;28;20267;-79
2021/06/22 06:15:13;;;;;;;11.13;5.37;;;;;;;15.01;75.12;100761.78;5096698;28;20200;-80
2021/06/22 06:17:40;;;;;;;7.60;5.30;;;;;;;15.04;74.99;100765.09;5115451;28;20214;-81
2021/06/22 06:20:09;;;;;;;7.37;5.70;;;;;;;15.05;74.72;100753.34;5117169;28;20230;-80
2021/06/22 06:22:37;;;;;;;9.73;6.37;;;;;;;15.09;75.00;100744.09;5116928;28;20199;-80
2021/06/22 06:25:04;;;;;;;8.77;5.80;;;;;;;15.14;75.00;100736.53;5116471;28;20561;-79
2021/06/22 06:27:40;;;;;;;9.37;6.87;;;;;;;15.15;74.81;100740.06;5116043;28;20230;-79
2021/06/22 06:30:11;;;;;;;9.93;6.90;;;;;;;15.18;74.55;100751.41;5116137;28;20258;-78
2021/06/22 06:32:37;;;;;;;10.27;6.10;;;;;;;15.22;74.49;100752.03;5116492;28;20237;-78
2021/06/22 06:35:06;;;;;;;10.67;6.30;;;;;;;15.25;74.46;100757.13;5115509;28;20203;-79
2021/06/22 06:37:32;;;;;;;10.70;7.13;;;;;;;15.29;74.71;100759.44;5115808;28;20227;-78
2021/06/22 06:39:59;;;;;;;10.93;6.83;;;;;;;15.34;74.74;100758.22;5101686;28;20419;-78
2021/06/22 06:42:26;;;;;;;9.47;7.67;;;;;;;15.36;73.83;100761.63;5116324;28;20570;-76
2021/06/22 06:44:52;;;;;;;12.20;8.63;;;;;;;15.37;73.73;100755.28;5115706;28;20206;-77
2021/06/22 06:47:20;;;;;;;15.73;8.43;;;;;;;15.39;73.84;100764.06;5116671;28;20232;-80
2021/06/22 06:49:46;;;;;;;10.60;7.33;;;;;;;15.46;73.83;100757.19;5103339;28;20302;-79
2021/06/22 06:52:13;;;;;;;10.13;7.50;;;;;;;15.52;73.75;100756.72;5100627;28;20195;-78
2021/06/22 06:54:40;;;;;;;11.40;7.43;;;;;;;15.57;73.63;100759.91;5116733;28;20666;-80
2021/06/22 06:57:07;;;;;;;12.07;8.53;;;;;;;15.65;73.22;100759.25;5116047;28;20227;-79
2021/06/22 06:59:34;;;;;;;13.47;9.53;;;;;;;15.71;73.40;100750.69;5116318;28;20227;-78
2021/06/22 07:02:00;;;;;;;12.50;8.27;;;;;;;15.75;72.83;100750.31;5115700;28;20244;-80
2021/06/22 07:04:28;;;;;;;10.80;7.87;;;;;;;15.79;73.01;100745.53;5115721;28;20565;-79
2021/06/22 07:06:54;;;;;;;14.87;8.03;;;;;;;15.85;73.09;100753.94;5115964;28;20226;-79
2021/06/22 07:09:21;;;;;;;12.07;9.07;;;;;;;15.91;72.69;100766.88;5115473;28;20238;-80
2021/06/22 07:11:48;;;;;;;12.17;8.83;;;;;;;15.95;72.65;100762.91;5116594;28;20206;-77
2021/06/22 07:14:14;;;;;;;13.23;9.40;;;;;;;16.00;72.31;100761.69;5116359;28;20203;-79
2021/06/22 07:16:41;;;;;;;11.63;8.70;;;;;;;16.00;71.50;100772.44;5115962;28;20206;-80
2021/06/22 07:19:08;;;;;;;13.83;9.83;;;;;;;16.02;71.64;100770.47;5115258;28;20249;-80
2021/06/22 07:21:36;;;;;;;9.17;7.60;;;;;;;16.08;71.71;100768.13;5116339;28;20683;-79
2021/06/22 07:24:03;;;;;;;13.73;8.63;;;;;;;16.15;71.44;100771.13;5115565;28;20204;-78
2021/06/22 07:26:29;;;;;;;9.37;7.37;;;;;;;16.20;70.78;100766.22;5115143;28;20358;-78
2021/06/22 07:28:56;;;;;;;10.43;7.57;;;;;;;16.21;70.40;100767.94;5115028;28;20231;-79
2021/06/22 07:31:22;;;;;;;8.23;6.47;;;;;;;16.25;69.71;100775.63;5115109;28;20565;-80
2021/06/22 07:33:50;;;;;;;11.30;7.47;;;;;;;16.28;69.94;100775.34;5116024;28;20214;-79
2021/06/22 07:36:17;;;;;;;10.47;7.30;;;;;;;16.33;69.40;100762.34;5115824;28;20212;-79
2021/06/22 07:38:45;;;;;;;10.93;7.10;;;;;;;16.38;69.64;100767.34;5115864;28;20290;-79
2021/06/22 07:41:12;;;;;;;10.30;6.73;;;;;;;16.44;69.57;100769.53;5108988;22;20228;-67
2021/06/22 07:43:39;;;;;;;8.43;5.40;;;;;;;16.53;69.14;100766.03;5089867;28;20224;-66
2021/06/22 07:46:06;;;;;;;8.43;4.13;;;;;;;16.58;67.94;100763.78;5088446;28;20291;-66
2021/06/22 07:48:33;;;;;;;6.80;3.87;;;;;;;16.62;67.84;100772.47;5087863;28;20227;-66
2021/06/22 07:51:01;;;;;;;5.53;4.77;;;;;;;16.68;67.54;100777.31;5084528;28;20200;-67
2021/06/22 07:53:27;;;;;;;8.10;4.33;;;;;;;16.78;67.76;100767.47;5118537;22;20394;-66
2021/06/22 07:55:55;;;;;;;6.90;3.10;;;;;;;16.86;67.13;100773.03;5100621;28;20672;-67
2021/06/22 07:58:22;;;;;;;8.57;3.80;;;;;;;16.94;66.77;100773.22;5111648;28;20204;-66
2021/06/22 08:00:49;;;;;;;10.23;3.60;;;;;;;17.02;66.54;100786.81;5106613;28;20672;-65
2021/06/22 08:03:18;;;;;;;5.70;2.90;;;;;;;17.10;66.09;100785.31;5094242;28;20313;-66
2021/06/22 08:05:46;;;;;;;7.47;2.93;;;;;;;17.14;64.77;100782.22;5097733;28;20213;-65
2021/06/22 08:08:17;;;;;;;6.07;2.77;;;;;;;17.17;64.49;100781.94;5098217;28;20232;-69
2021/06/22 08:10:44;;;;;;;6.60;3.20;;;;;;;17.23;64.63;100784.06;5100179;28;20204;-66
2021/06/22 08:13:13;;;;;;;6.60;3.23;;;;;;;17.30;64.42;100781.69;5093209;28;20248;-66
2021/06/22 08:15:40;;;;;;;6.97;3.07;;;;;;;17.34;64.22;100784.00;5093788;28;20202;-65
2021/06/22 08:18:07;;;;;;;7.83;3.30;;;;;;;17.38;63.87;100781.84;5104344;28;20231;-65
2021/06/22 08:20:34;;;;;;;11.40;2.97;;;;;;;17.43;63.68;100784.13;5095769;28;20205;-64
2021/06/22 08:23:01;;;;;;;6.43;2.57;;;;;;;17.49;63.37;100784.44;5096893;28;20249;-65
2021/06/22 08:25:28;;;;;;;7.73;3.17;;;;;;;17.52;62.89;100783.31;5097008;28;20237;-66
2021/06/22 08:27:56;;;;;;;8.30;3.93;;;;;;;17.54;62.77;100781.34;5096054;28;20225;-67
2021/06/22 08:30:26;;;;;;;7.67;3.93;;;;;;;17.55;62.46;100788.44;5099536;28;20213;-66
2021/06/22 08:32:53;;;;;;;6.83;3.30;;;;;;;17.56;62.48;100787.41;5099491;28;20785;-66
2021/06/22 08:35:20;;;;;;;6.03;2.97;;;;;;;17.57;62.41;100786.44;5098359;28;20202;-67
2021/06/22 08:37:46;;;;;;;8.70;3.13;;;;;;;17.57;62.19;100794.50;5099287;28;20203;-67
2021/06/22 08:40:14;;;;;;;6.77;2.57;;;;;;;17.57;61.98;100789.13;5091570;28;20203;-64
2021/06/22 08:42:42;;;;;;;5.67;2.53;;;;;;;17.57;61.67;100787.28;5097208;28;20602;-67
2021/06/22 08:45:11;;;;;;;7.23;3.10;;;;;;;17.59;61.66;100787.16;5097863;28;20206;-66
2021/06/22 08:47:39;;;;;;;6.53;3.10;;;;;;;17.61;61.25;100794.09;5097931;28;20231;-65
2021/06/22 08:50:08;;;;;;;6.97;2.63;;;;;;;17.61;61.04;100793.25;5097559;28;20213;-66
2021/06/22 08:52:36;;;;;;;8.10;2.63;;;;;;;17.64;60.84;100799.25;5098692;28;20731;-65
2021/06/22 08:55:04;;;;;;;8.57;2.67;;;;;;;17.71;61.12;100810.34;5096786;28;20441;-65
2021/06/22 08:57:32;;;;;;;5.20;2.80;;;;;;;17.77;61.09;100804.38;5097489;28;20202;-65
2021/06/22 08:59:59;;;;;;;6.40;2.73;;;;;;;17.83;60.78;100789.50;5096684;28;20214;-65
2021/06/22 09:02:27;;;;;;;5.67;2.60;;;;;;;17.89;60.63;100797.03;5097650;28;20245;-66
2021/06/22 09:04:56;;;;;;;3.70;2.20;;;;;;;17.95;60.59;100800.00;5094019;28;20631;-67
2021/06/22 09:07:48;;;;;;;7.80;2.77;;;;;;;18.06;60.55;100799.03;5093329;28;20326;-66
2021/06/22 09:10:23;;;;;;;6.80;2.80;;;;;;;18.14;60.17;100792.91;5099278;28;20207;-66
2021/06/22 09:12:51;;;;;;;8.23;2.70;;;;;;;18.20;59.63;100797.75;5102139;28;20222;-66
2021/06/22 09:15:20;;;;;;;5.97;2.30;;;;;;;18.27;59.47;100794.31;5100656;28;20630;-66
2021/06/22 09:17:47;;;;;;;4.53;2.40;;;;;;;18.32;59.37;100800.13;5099732;28;20203;-66
2021/06/22 09:20:16;;;;;;;4.30;2.47;;;;;;;18.36;59.01;100793.47;5099260;28;20535;-67
2021/06/22 09:22:42;;;;;;;7.60;3.03;;;;;;;18.41;59.07;100800.28;5098308;28;20222;-66
2021/06/22 09:25:12;;;;;;;6.83;3.03;;;;;;;18.45;58.87;100804.41;5101122;28;20838;-68
2021/06/22 09:27:49;;;;;;;5.93;2.47;;;;;;;18.44;58.15;100803.53;5100633;28;20314;-66
2021/06/22 09:30:17;;;;;;;4.93;2.10;;;;;;;18.42;57.79;100804.69;5097661;28;20201;-66
2021/06/22 09:32:43;;;;;;;4.40;1.90;;;;;;;18.38;57.65;100798.72;5100526;28;20384;-65
2021/06/22 09:35:21;;;;;;;4.00;2.20;;;;;;;18.37;57.75;100791.63;5099176;28;20289;-65
2021/06/22 09:37:53;;;;;;;5.40;2.47;;;;;;;18.43;57.80;100792.91;5101347;28;20199;-67
2021/06/22 09:40:27;;;;;;;4.20;1.90;;;;;;;18.49;57.73;100800.41;5096181;28;20273;-67
2021/06/22 09:42:54;;;;;;;5.00;1.90;;;;;;;18.49;57.33;100803.94;5100275;28;20663;-67
2021/06/22 09:45:23;;;;;;;6.97;2.53;;;;;;;18.52;57.35;100816.28;5094982;28;20288;-67
2021/06/22 09:47:49;;;;;;;7.40;2.37;;;;;;;18.49;57.08;100817.44;5094858;28;20236;-65
2021/06/22 09:50:36;;;;;;;5.20;2.37;;;;;;;18.53;57.70;100818.00;5100274;28;20203;-65
2021/06/22 09:53:31;;;;;;;4.80;2.20;;;;;;;18.63;58.09;100821.56;5101651;28;20234;-66
2021/06/22 09:56:00;;;;;;;4.80;2.10;;;;;;;18.69;57.96;100812.88;5087990;27;20203;-65
2021/06/22 09:58:42;;;;;;;3.87;2.17;;;;;;;18.73;57.80;100814.31;5100168;28;20211;-66
2021/06/22 10:01:29;;;;;;;3.07;2.13;;;;;;;18.73;57.66;100820.56;5098962;28;20209;-66
2021/06/22 10:03:58;;;;;;;4.90;2.33;;;;;;;18.76;57.48;100823.97;5095169;28;20722;-65
2021/06/22 10:06:33;;;;;;;6.13;2.27;;;;;;;18.73;57.35;100822.41;5102378;28;20208;-66
2021/06/22 10:09:00;;;;;;;4.17;1.90;;;;;;;18.68;56.79;100814.72;5099212;28;20755;-66
2021/06/22 10:11:35;;;;;;;3.07;2.07;;;;;;;18.63;56.46;100818.88;5093738;28;20207;-66
2021/06/22 10:14:03;;;;;;;4.40;2.00;;;;;;;18.58;56.85;100824.66;5094694;28;20379;-67
2021/06/22 10:16:32;;;;;;;5.67;2.27;;;;;;;18.60;57.29;100821.88;5099421;28;20207;-65
2021/06/22 10:19:00;;;;;;;5.73;2.40;;;;;;;18.65;57.33;100817.72;5111358;28;20207;-66
2021/06/22 10:21:28;;;;;;;4.00;1.70;;;;;;;18.73;57.06;100822.41;5112223;28;20225;-67
2021/06/22 10:23:56;;;;;;;5.23;2.27;;;;;;;18.83;56.59;100823.22;5102449;28;20228;-67
2021/06/22 10:26:25;;;;;;;3.37;1.73;;;;;;;18.89;55.73;100811.00;5110158;28;20664;-67
2021/06/22 10:28:52;;;;;;;3.73;1.60;;;;;;;18.95;55.68;100816.66;5104067;28;20221;-66
2021/06/22 10:31:19;;;;;;;4.93;1.80;;;;;;;19.04;54.50;100810.38;5109274;28;20202;-67
2021/06/22 10:33:45;;;;;;;2.70;1.50;;;;;;;19.14;54.58;100820.28;5103489;28;20228;-66
2021/06/22 10:36:22;;;;;;;7.93;2.10;;;;;;;19.22;54.16;100820.38;5099036;28;21958;-69
2021/06/22 10:38:54;;;;;;;5.57;1.70;;;;;;;19.27;54.12;100821.66;5100673;28;20214;-68
2021/06/22 10:41:22;;;;;;;5.57;1.97;;;;;;;19.33;54.28;100834.56;5103928;28;20578;-68
2021/06/22 10:43:49;;;;;;;6.70;2.20;;;;;;;19.40;54.40;100834.81;5095030;28;20721;-71
2021/06/22 10:46:17;;;;;;;4.47;1.80;;;;;;;19.46;53.92;100844.16;5097179;28;20676;-69
2021/06/22 10:48:45;;;;;;;6.10;2.03;;;;;;;19.52;53.71;100840.91;5099771;28;20221;-69
2021/06/22 10:51:32;;;;;;;5.87;2.23;;;;;;;19.59;53.55;100837.44;5102681;28;20205;-70
2021/06/22 10:54:00;;;;;;;3.83;2.17;;;;;;;19.67;53.72;100842.09;5091944;28;20238;-69
2021/06/22 10:56:28;;;;;;;3.63;2.03;;;;;;;19.71;52.94;100835.38;5104274;28;20217;-69
2021/06/22 10:59:23;;;;;;;5.73;2.27;;;;;;;19.71;53.51;100835.38;5099207;28;20257;-69
2021/06/22 11:02:00;;;;;;;7.43;2.27;;;;;;;19.77;54.41;100832.06;5106258;28;20213;-69
2021/06/22 11:04:27;;;;;;;5.10;2.50;;;;;;;19.83;54.54;100836.03;5099117;28;20206;-70
2021/06/22 11:07:03;;;;;;;6.63;3.00;;;;;;;19.87;54.64;100845.53;5093259;28;20207;-70
2021/06/22 11:09:31;;;;;;;5.63;2.40;;;;;;;19.89;54.58;100832.69;5098659;28;20706;-70
2021/06/22 11:12:24;;;;;;;7.87;2.60;;;;;;;19.86;54.26;100842.00;5098061;28;20641;-70
2021/06/22 11:15:07;;;;;;;5.17;2.70;;;;;;;19.83;54.39;100842.28;5091219;28;20628;-69
2021/06/22 11:17:57;;;;;;;4.47;1.70;;;;;;;19.74;53.29;100837.78;5105977;28;20288;-70
2021/06/22 11:20:23;;;;;;;6.43;2.57;;;;;;;19.63;52.63;100835.28;5098746;28;20217;-69
2021/06/22 11:23:07;;;;;;;4.60;2.00;;;;;;;19.62;52.88;100833.59;5104799;28;20226;-69
2021/06/22 11:25:53;;;;;;;7.43;2.27;;;;;;;19.64;52.40;100835.16;5095467;28;20274;-69
2021/06/22 11:28:22;;;;;;;4.80;1.80;;;;;;;19.70;52.25;100833.69;5091899;28;20747;-69
2021/06/22 11:30:59;;;;;;;4.47;2.20;;;;;;;19.76;52.40;100830.38;5094238;28;20571;-69